Time;durP1;ratioP1;P1;durP2;ratioP2;P2;SDS_P1;SDS_P2;PMS_P1;PMS_P2;Temp;Humidity;BMP_temperature;BMP_pressure;BME280_temperature;BME280_humidity;BME280_pressure;Samples;Min_cycle;Max_cycle;Signal;HPM_P1;HPM_P2
2021/07/08 00:00:50;;;;;;;11.50;2.70;;;;;;;13.90;100.00;99886.56;5074966;28;20051;-52
2021/07/08 00:03:53;;;;;;;7.75;2.08;;;;;;;13.91;100.00;99890.88;5075008;28;20373;-51
2021/07/08 00:06:56;;;;;;;2.95;2.42;;;;;;;13.87;100.00;99888.31;5074923;28;20040;-51
2021/07/08 00:10:00;;;;;;;9.93;2.33;;;;;;;13.86;100.00;99892.38;5073811;28;20048;-51
2021/07/08 00:13:04;;;;;;;4.95;1.52;;;;;;;14.00;100.00;99885.09;5090007;28;20055;-51
2021/07/08 00:16:07;;;;;;;6.93;1.95;;;;;;;13.92;100.00;99892.44;5095173;28;20059;-51
2021/07/08 00:19:11;;;;;;;6.03;2.47;;;;;;;13.80;100.00;99885.19;5094746;28;20385;-51
2021/07/08 00:22:15;;;;;;;7.72;2.17;;;;;;;13.82;100.00;99888.28;5037659;28;20709;-52
2021/07/08 00:25:22;;;;;;;8.50;2.08;;;;;;;13.84;100.00;99885.75;5052037;28;20039;-52
2021/07/08 00:28:26;;;;;;;8.50;2.28;;;;;;;13.83;100.00;99879.38;5053890;28;20519;-51
2021/07/08 00:31:29;;;;;;;9.20;2.00;;;;;;;13.61;100.00;99882.78;5052616;28;20408;-51
2021/07/08 00:34:33;;;;;;;6.63;2.10;;;;;;;13.49;100.00;99889.50;5071556;28;20052;-51
2021/07/08 00:37:37;;;;;;;5.85;2.30;;;;;;;13.41;100.00;99882.84;5070853;28;20051;-51
2021/07/08 00:40:41;;;;;;;7.38;2.25;;;;;;;13.35;100.00;99896.00;5069993;28;20051;-51
2021/07/08 00:43:46;;;;;;;5.47;2.03;;;;;;;13.35;100.00;99895.22;5070241;28;20055;-51
2021/07/08 00:46:49;;;;;;;7.78;1.42;;;;;;;13.41;100.00;99896.06;5071089;28;20686;-51
2021/07/08 00:49:52;;;;;;;4.45;1.65;;;;;;;13.42;100.00;99898.38;5070672;28;20051;-51
2021/07/08 00:52:56;;;;;;;4.50;2.30;;;;;;;13.47;100.00;99900.44;5070833;28;20527;-51
2021/07/08 00:56:03;;;;;;;9.70;2.17;;;;;;;13.44;100.00;99900.66;5070520;28;20051;-51
2021/07/08 00:59:08;;;;;;;3.20;1.98;;;;;;;13.39;100.00;99899.34;5070773;28;20043;-51
2021/07/08 01:02:13;;;;;;;4.93;2.05;;;;;;;13.36;100.00;99900.31;5071653;28;20515;-51
2021/07/08 01:05:19;;;;;;;8.57;2.28;;;;;;;13.43;100.00;99905.50;5070372;28;20063;-52
2021/07/08 01:08:25;;;;;;;9.50;2.30;;;;;;;13.47;100.00;99905.28;5070771;28;20039;-51
2021/07/08 01:11:28;;;;;;;5.15;1.92;;;;;;;13.44;100.00;99909.84;5072554;28;20063;-50
2021/07/08 01:14:32;;;;;;;7.93;2.22;;;;;;;13.39;100.00;99902.16;5093339;28;20400;-57
2021/07/08 01:17:36;;;;;;;10.30;2.72;;;;;;;13.50;100.00;99919.03;5093500;28;20047;-57
2021/07/08 01:20:39;;;;;;;6.40;2.70;;;;;;;13.47;100.00;99908.81;5093722;28;20058;-51
2021/07/08 01:23:43;;;;;;;7.03;2.17;;;;;;;13.49;100.00;99914.69;5073261;28;20048;-51
2021/07/08 01:26:46;;;;;;;4.03;2.03;;;;;;;13.46;100.00;99912.91;5072801;28;20063;-51
2021/07/08 01:29:50;;;;;;;6.18;2.38;;;;;;;13.52;100.00;99918.53;5073193;28;20043;-51
2021/07/08 01:32:55;;;;;;;13.95;2.80;;;;;;;13.49;100.00;99923.09;5072547;28;20114;-51
2021/07/08 01:35:59;;;;;;;4.47;2.10;;;;;;;13.48;100.00;99923.59;5072994;28;20063;-52
2021/07/08 01:39:04;;;;;;;6.30;2.85;;;;;;;13.47;100.00;99933.25;5070684;28;20044;-51
2021/07/08 01:42:08;;;;;;;10.00;3.42;;;;;;;13.50;100.00;99926.66;5072564;28;20047;-51
2021/07/08 01:45:15;;;;;;;8.68;2.10;;;;;;;13.46;100.00;99929.69;5072906;28;20039;-51
2021/07/08 01:48:20;;;;;;;5.78;2.05;;;;;;;13.44;100.00;99935.00;5073055;28;20043;-51
2021/07/08 01:51:23;;;;;;;6.93;2.08;;;;;;;13.41;100.00;99938.00;5072999;28;20051;-51
2021/07/08 01:54:27;;;;;;;8.40;2.13;;;;;;;13.36;100.00;99942.28;5072888;28;20051;-51
2021/07/08 01:57:30;;;;;;;4.60;1.85;;;;;;;13.28;100.00;99932.78;5072343;28;20506;-51
2021/07/08 02:00:34;;;;;;;7.78;2.45;;;;;;;13.35;100.00;99937.97;5079067;28;20055;-51
2021/07/08 02:03:37;;;;;;;9.65;2.33;;;;;;;13.29;100.00;99942.75;5092405;28;20392;-51
2021/07/08 02:06:41;;;;;;;7.63;2.20;;;;;;;13.26;100.00;99943.72;5092742;28;20047;-51
2021/07/08 02:09:44;;;;;;;9.00;2.22;;;;;;;13.24;100.00;99937.06;5091092;28;20039;-51
2021/07/08 02:12:48;;;;;;;11.75;2.47;;;;;;;13.27;100.00;99938.88;5092649;28;20051;-51
2021/07/08 02:15:52;;;;;;;14.38;2.50;;;;;;;13.23;100.00;99947.47;5092782;28;20047;-51
2021/07/08 02:18:56;;;;;;;3.75;2.05;;;;;;;13.23;100.00;99943.94;5092892;28;20051;-51
2021/07/08 02:22:00;;;;;;;2.85;1.45;;;;;;;13.21;100.00;99936.00;5091908;28;20051;-51
2021/07/08 02:25:05;;;;;;;4.15;1.90;;;;;;;13.15;100.00;99940.00;5090974;28;20044;-52
2021/07/08 02:28:09;;;;;;;7.15;2.17;;;;;;;13.07;100.00;99942.47;5092685;28;20043;-51
2021/07/08 02:31:13;;;;;;;5.63;2.65;;;;;;;13.14;100.00;99939.25;5092607;28;20056;-51
2021/07/08 02:34:16;;;;;;;5.60;2.15;;;;;;;13.21;100.00;99950.00;5092750;28;20051;-51
2021/07/08 02:37:20;;;;;;;3.65;1.55;;;;;;;13.25;100.00;99947.78;5092723;28;20043;-51
2021/07/08 02:40:29;;;;;;;13.25;2.58;;;;;;;13.15;100.00;99951.97;5092639;28;20067;-51
2021/07/08 02:43:33;;;;;;;8.07;2.97;;;;;;;13.17;100.00;99955.03;5091764;28;20071;-51
2021/07/08 02:46:37;;;;;;;5.90;2.67;;;;;;;13.17;100.00;99952.25;5091573;28;20396;-51
2021/07/08 02:49:40;;;;;;;7.32;2.13;;;;;;;13.15;100.00;99957.56;5092641;28;20035;-51
2021/07/08 02:52:44;;;;;;;7.30;2.28;;;;;;;13.22;100.00;99962.72;5092268;28;20051;-51
2021/07/08 02:55:49;;;;;;;8.57;2.85;;;;;;;13.15;100.00;99954.75;5092012;28;20067;-52
2021/07/08 02:58:53;;;;;;;9.73;2.88;;;;;;;13.16;100.00;99970.31;5092356;28;20043;-51
2021/07/08 03:01:56;;;;;;;11.27;2.80;;;;;;;13.15;100.00;99956.78;5091865;28;20051;-52
2021/07/08 03:05:00;;;;;;;16.23;2.80;;;;;;;13.15;100.00;99967.97;5092253;28;20050;-52
2021/07/08 03:08:03;;;;;;;21.95;3.78;;;;;;;13.09;100.00;99958.75;5092467;28;20039;-51
2021/07/08 03:11:07;;;;;;;9.10;2.58;;;;;;;12.98;100.00;99964.19;5092091;28;20059;-51
2021/07/08 03:14:10;;;;;;;7.72;3.58;;;;;;;12.92;100.00;99958.53;5072073;28;20048;-51
2021/07/08 03:17:14;;;;;;;13.40;3.42;;;;;;;12.83;100.00;99959.44;5071959;28;20389;-51
2021/07/08 03:20:20;;;;;;;11.38;3.35;;;;;;;12.72;100.00;99964.09;5071787;28;20502;-51
2021/07/08 03:23:24;;;;;;;10.75;2.85;;;;;;;12.63;100.00;99967.00;5073068;28;20052;-51
2021/07/08 03:26:27;;;;;;;11.10;4.00;;;;;;;12.58;100.00;99979.66;5075182;28;20043;-51
2021/07/08 03:29:30;;;;;;;9.13;3.03;;;;;;;12.50;100.00;99983.34;5074768;28;20059;-51
2021/07/08 03:32:34;;;;;;;7.53;1.95;;;;;;;12.48;100.00;99983.06;5075447;28;20047;-51
2021/07/08 03:35:38;;;;;;;11.40;3.13;;;;;;;12.44;100.00;99985.28;5074699;28;20043;-52
2021/07/08 03:38:41;;;;;;;13.63;3.25;;;;;;;12.33;100.00;99983.09;5075082;28;20507;-52
2021/07/08 03:41:44;;;;;;;12.85;2.80;;;;;;;12.21;100.00;99986.19;5075260;28;20064;-51
2021/07/08 03:44:47;;;;;;;7.88;3.03;;;;;;;12.15;100.00;99989.66;5075196;28;20051;-51
2021/07/08 03:47:52;;;;;;;5.95;3.00;;;;;;;12.16;100.00;99998.81;5075352;28;20059;-52
2021/07/08 03:50:55;;;;;;;5.63;2.08;;;;;;;12.16;100.00;99996.78;5075302;28;20055;-51
2021/07/08 03:53:58;;;;;;;24.42;3.53;;;;;;;12.25;100.00;100001.50;5074531;28;20047;-51
2021/07/08 03:57:03;;;;;;;8.63;2.88;;;;;;;12.33;100.00;100001.88;5074802;28;20047;-51
2021/07/08 04:00:07;;;;;;;12.38;2.90;;;;;;;12.49;100.00;99999.34;5075253;28;20051;-51
2021/07/08 04:03:16;;;;;;;13.02;3.17;;;;;;;12.52;100.00;100005.97;5074524;28;20052;-51
2021/07/08 04:06:19;;;;;;;8.45;2.63;;;;;;;12.49;100.00;100006.94;5074319;28;20047;-51
2021/07/08 04:09:23;;;;;;;5.70;2.88;;;;;;;12.15;100.00;100012.00;5073483;28;20035;-51
2021/07/08 04:12:26;;;;;;;4.03;1.85;;;;;;;12.23;100.00;100011.59;5084115;28;20059;-51
2021/07/08 04:15:31;;;;;;;8.68;2.92;;;;;;;12.21;100.00;100019.69;5094523;28;20051;-51
2021/07/08 04:18:34;;;;;;;5.38;2.35;;;;;;;12.18;100.00;100015.84;5094240;28;20047;-51
2021/07/08 04:21:38;;;;;;;14.35;2.90;;;;;;;12.23;100.00;100011.59;5094207;28;20047;-51
2021/07/08 04:24:41;;;;;;;13.90;3.15;;;;;;;12.21;100.00;100008.53;5093466;28;20036;-51
2021/07/08 04:27:46;;;;;;;14.98;3.80;;;;;;;12.30;100.00;100016.81;5094568;28;20055;-52
2021/07/08 04:30:50;;;;;;;5.70;2.63;;;;;;;12.34;100.00;100014.59;5094496;28;20048;-51
2021/07/08 04:33:53;;;;;;;6.75;2.35;;;;;;;12.39;100.00;100019.50;5094837;28;20043;-51
2021/07/08 04:36:57;;;;;;;15.05;2.75;;;;;;;12.42;100.00;100018.50;5093850;28;20384;-52
2021/07/08 04:40:00;;;;;;;6.55;1.63;;;;;;;12.40;100.00;100016.22;5093951;28;20067;-52
2021/07/08 04:43:05;;;;;;;12.73;3.78;;;;;;;12.39;100.00;100019.50;5094412;28;20054;-52
2021/07/08 04:46:09;;;;;;;11.68;4.00;;;;;;;12.38;100.00;100020.75;5094126;28;20040;-51
2021/07/08 04:49:13;;;;;;;7.45;2.05;;;;;;;12.37;100.00;100027.56;5092718;28;20500;-52
2021/07/08 04:52:17;;;;;;;18.35;3.67;;;;;;;12.31;100.00;100023.91;5094423;28;20051;-52
2021/07/08 04:55:23;;;;;;;9.82;2.65;;;;;;;12.31;100.00;100030.28;5094232;28;20039;-52
2021/07/08 04:58:27;;;;;;;7.70;2.50;;;;;;;12.29;100.00;100040.38;5093828;28;20047;-52
2021/07/08 05:01:30;;;;;;;10.80;3.45;;;;;;;12.39;100.00;100033.47;5093432;28;20051;-52
2021/07/08 05:04:33;;;;;;;11.00;3.20;;;;;;;12.32;100.00;100037.41;5092790;28;20388;-52
2021/07/08 05:07:38;;;;;;;13.15;2.65;;;;;;;12.34;100.00;100037.69;5093948;28;20118;-52
2021/07/08 05:10:41;;;;;;;8.65;2.20;;;;;;;12.38;100.00;100040.28;5092875;28;20394;-51
2021/07/08 05:13:44;;;;;;;6.97;3.03;;;;;;;12.17;100.00;100040.19;5073239;28;20047;-51
2021/07/08 05:16:48;;;;;;;10.20;4.00;;;;;;;12.12;100.00;100046.47;5073717;28;20115;-52
2021/07/08 05:19:52;;;;;;;9.45;2.40;;;;;;;12.26;100.00;100044.16;5073353;28;20496;-52
2021/07/08 05:23:02;;;;;;;7.70;2.72;;;;;;;12.30;100.00;100044.72;5073533;28;20059;-52
2021/07/08 05:26:05;;;;;;;8.63;1.80;;;;;;;12.44;100.00;100049.53;5073085;28;20389;-52
2021/07/08 05:29:09;;;;;;;5.80;2.72;;;;;;;12.42;100.00;100049.25;5073043;28;20055;-52
2021/07/08 05:32:14;;;;;;;4.18;2.05;;;;;;;12.49;100.00;100057.22;5076477;28;20388;-52
2021/07/08 05:35:17;;;;;;;8.73;3.13;;;;;;;12.54;100.00;100053.75;5073609;28;20490;-52
2021/07/08 05:38:21;;;;;;;5.20;2.42;;;;;;;12.74;100.00;100062.19;5077743;28;20047;-51
2021/07/08 05:41:24;;;;;;;6.50;2.15;;;;;;;12.90;100.00;100059.66;5084192;28;20436;-52
2021/07/08 05:44:28;;;;;;;5.07;2.28;;;;;;;13.15;100.00;100069.41;5086593;28;20520;-52
2021/07/08 05:47:31;;;;;;;12.43;3.72;;;;;;;13.23;100.00;100070.53;5085639;28;20051;-53
2021/07/08 05:50:35;;;;;;;11.93;3.33;;;;;;;13.40;100.00;100067.97;5092776;28;20047;-52
2021/07/08 05:53:38;;;;;;;8.93;2.25;;;;;;;13.58;100.00;100068.44;5093099;28;20067;-57
2021/07/08 05:56:41;;;;;;;7.22;3.53;;;;;;;13.75;100.00;100070.66;5091876;28;20047;-57
2021/07/08 05:59:45;;;;;;;7.32;2.45;;;;;;;13.85;100.00;100058.81;5077813;28;20047;-57
2021/07/08 06:02:49;;;;;;;9.68;2.65;;;;;;;13.93;100.00;100071.13;5072577;28;20075;-57
2021/07/08 06:05:52;;;;;;;7.55;2.72;;;;;;;14.03;100.00;100063.34;5072909;28;20047;-57
2021/07/08 06:08:56;;;;;;;5.38;2.55;;;;;;;14.11;100.00;100072.81;5072493;28;20044;-57
2021/07/08 06:11:59;;;;;;;9.15;2.53;;;;;;;14.15;100.00;100076.16;5079208;28;20039;-57
2021/07/08 06:15:03;;;;;;;7.45;2.22;;;;;;;14.26;100.00;100093.09;5091851;28;20051;-57
2021/07/08 06:18:07;;;;;;;6.50;2.35;;;;;;;14.67;100.00;100088.88;5092840;28;20051;-57
2021/07/08 06:21:14;;;;;;;6.18;1.63;;;;;;;14.89;100.00;100103.09;5092454;28;20047;-57
2021/07/08 06:24:17;;;;;;;5.07;2.58;;;;;;;14.88;100.00;100095.91;5093201;28;20043;-57
2021/07/08 06:27:20;;;;;;;5.05;1.65;;;;;;;14.87;100.00;100100.00;5092268;28;20051;-57
2021/07/08 06:30:24;;;;;;;7.53;2.50;;;;;;;14.88;100.00;100104.34;5092616;28;20515;-58
2021/07/08 06:33:27;;;;;;;6.55;1.75;;;;;;;14.95;100.00;100112.28;5091477;28;20051;-57
2021/07/08 06:36:31;;;;;;;8.20;2.90;;;;;;;15.08;100.00;100111.88;5071999;28;20043;-57
2021/07/08 06:39:34;;;;;;;3.10;1.45;;;;;;;15.11;100.00;100130.50;5071562;28;20081;-57
2021/07/08 06:42:38;;;;;;;9.25;3.17;;;;;;;15.18;100.00;100122.38;5071750;28;20059;-57
2021/07/08 06:45:42;;;;;;;4.50;1.88;;;;;;;15.28;100.00;100136.22;5071446;28;20056;-57
2021/07/08 06:48:46;;;;;;;5.25;1.88;;;;;;;15.45;100.00;100134.31;5090127;28;20043;-57
2021/07/08 06:51:50;;;;;;;4.15;1.88;;;;;;;15.49;100.00;100129.22;5090799;28;20072;-57
2021/07/08 06:54:53;;;;;;;5.70;2.50;;;;;;;15.67;100.00;100129.56;5090362;28;20384;-57
2021/07/08 06:57:57;;;;;;;2.30;0.85;;;;;;;15.61;100.00;100130.81;5091245;28;20051;-57
2021/07/08 07:01:00;;;;;;;3.28;1.75;;;;;;;15.68;100.00;100141.59;5096086;28;20070;-56
2021/07/08 07:04:04;;;;;;;6.65;1.63;;;;;;;15.76;100.00;100146.22;5096102;28;20055;-57
2021/07/08 07:07:07;;;;;;;5.25;1.88;;;;;;;15.83;100.00;100142.16;5096242;28;20054;-57
2021/07/08 07:10:12;;;;;;;2.15;1.08;;;;;;;15.86;100.00;100136.28;5096325;28;20043;-57
2021/07/08 07:13:15;;;;;;;4.85;1.67;;;;;;;15.86;100.00;100144.72;5095780;28;20050;-57
2021/07/08 07:16:19;;;;;;;3.40;1.27;;;;;;;15.83;100.00;100142.16;5095865;28;20384;-57
2021/07/08 07:19:22;;;;;;;2.95;1.70;;;;;;;15.90;100.00;100144.47;5095454;28;20039;-56
2021/07/08 07:22:26;;;;;;;4.28;1.77;;;;;;;15.87;100.00;100139.88;5095600;28;20055;-57
2021/07/08 07:25:29;;;;;;;5.32;1.52;;;;;;;15.78;100.00;100134.47;5095292;28;20055;-56
2021/07/08 07:28:33;;;;;;;8.15;2.15;;;;;;;15.72;100.00;100139.31;5095445;28;20055;-56
2021/07/08 07:31:36;;;;;;;4.80;1.55;;;;;;;15.59;100.00;100138.97;5095241;28;20043;-56
2021/07/08 07:34:40;;;;;;;2.13;0.95;;;;;;;15.55;100.00;100146.88;5095465;28;20043;-56
2021/07/08 07:37:43;;;;;;;4.20;1.83;;;;;;;15.56;100.00;100148.41;5095463;28;20412;-56
2021/07/08 07:40:47;;;;;;;3.45;1.65;;;;;;;15.51;100.00;100147.09;5095650;28;20122;-57
2021/07/08 07:43:50;;;;;;;2.03;0.77;;;;;;;15.49;100.00;100146.06;5095413;28;20047;-57
2021/07/08 07:46:55;;;;;;;1.25;1.00;;;;;;;15.59;100.00;100150.22;5095526;28;20047;-57
2021/07/08 07:49:59;;;;;;;4.30;1.40;;;;;;;15.76;100.00;100153.88;5095415;28;20051;-57
2021/07/08 07:53:03;;;;;;;1.65;0.73;;;;;;;15.80;100.00;100160.00;5074809;28;20055;-56
2021/07/08 07:56:07;;;;;;;5.13;1.15;;;;;;;16.02;100.00;100165.72;5074973;28;20047;-57
2021/07/08 07:59:10;;;;;;;3.78;1.27;;;;;;;16.29;100.00;100162.22;5074919;28;20043;-57
2021/07/08 08:02:14;;;;;;;9.43;1.85;;;;;;;16.68;100.00;100165.88;5074926;28;20047;-57
2021/07/08 08:08:27;;;;;;;3.55;0.85;;;;;;;16.46;100.00;100177.06;5074511;28;20054;-57
2021/07/08 08:11:31;;;;;;;3.70;0.57;;;;;;;16.33;100.00;100173.97;5076718;28;20047;-57
2021/07/08 08:14:35;;;;;;;4.95;1.35;;;;;;;16.94;100.00;100182.50;5094492;28;20062;-57
2021/07/08 08:17:38;;;;;;;10.73;1.77;;;;;;;17.18;100.00;100176.34;5094629;28;20051;-57
2021/07/08 08:20:42;;;;;;;1.52;0.60;;;;;;;17.13;100.00;100177.91;5094319;28;20388;-57
2021/07/08 08:23:45;;;;;;;6.07;1.65;;;;;;;16.96;100.00;100173.56;5094598;28;20067;-57
2021/07/08 08:26:51;;;;;;;2.15;1.17;;;;;;;16.75;100.00;100169.47;5093648;28;20059;-57
2021/07/08 08:29:55;;;;;;;3.47;1.73;;;;;;;16.97;100.00;100180.72;5094098;28;20055;-57
2021/07/08 08:32:59;;;;;;;7.88;1.58;;;;;;;17.17;100.00;100172.78;5094297;28;20499;-56
2021/07/08 08:36:03;;;;;;;5.97;1.98;;;;;;;17.33;100.00;100179.66;5094345;28;20063;-57
2021/07/08 08:39:06;;;;;;;0.98;0.63;;;;;;;17.53;100.00;100181.44;5093798;28;20047;-57
2021/07/08 08:42:10;;;;;;;1.55;0.95;;;;;;;17.81;100.00;100177.28;5094206;28;20372;-57
2021/07/08 08:45:17;;;;;;;3.63;1.13;;;;;;;18.04;100.00;100175.88;5093940;28;20401;-56
2021/07/08 08:48:21;;;;;;;7.78;1.15;;;;;;;18.46;100.00;100176.72;5094022;28;20051;-57
2021/07/08 08:51:25;;;;;;;2.35;1.52;;;;;;;18.70;100.00;100174.78;5092987;28;20050;-57
2021/07/08 08:54:28;;;;;;;8.00;1.35;;;;;;;18.76;100.00;100164.19;5093338;28;20043;-57
2021/07/08 08:57:32;;;;;;;4.40;1.00;;;;;;;18.61;100.00;100160.22;5093031;28;20055;-57
2021/07/08 09:00:56;;;;;;;4.07;1.30;;;;;;;18.24;100.00;100154.25;5093391;28;20487;-57
2021/07/08 09:04:00;;;;;;;1.23;0.52;;;;;;;18.25;100.00;100162.22;5094053;28;20391;-57
2021/07/08 09:07:32;;;;;;;5.53;2.10;;;;;;;18.44;100.00;100159.53;5093988;28;20047;-57
2021/07/08 09:10:35;;;;;;;4.85;1.88;;;;;;;18.57;100.00;100154.09;5093118;28;20519;-57
2021/07/08 09:13:42;;;;;;;2.13;1.02;;;;;;;18.88;100.00;100165.63;5093787;28;20047;-57
2021/07/08 09:16:45;;;;;;;4.45;1.65;;;;;;;19.07;100.00;100151.63;5093487;28;20055;-57
2021/07/08 09:20:07;;;;;;;3.10;0.93;;;;;;;19.32;100.00;100150.34;5093011;28;20430;-56
2021/07/08 09:23:16;;;;;;;5.75;1.67;;;;;;;19.37;100.00;100158.03;5093574;28;20059;-57
2021/07/08 09:26:21;;;;;;;15.50;1.37;;;;;;;19.11;100.00;100157.75;5093011;28;20399;-56
2021/07/08 09:29:30;;;;;;;3.10;0.82;;;;;;;18.79;100.00;100151.09;5093058;28;20036;-57
2021/07/08 09:32:35;;;;;;;7.68;1.55;;;;;;;18.96;100.00;100153.78;5091304;28;20051;-57
2021/07/08 09:35:40;;;;;;;2.33;1.10;;;;;;;19.44;100.00;100162.34;5092467;28;20051;-57
2021/07/08 09:38:46;;;;;;;1.83;1.00;;;;;;;19.33;100.00;100151.91;5093029;28;20051;-57
2021/07/08 09:41:53;;;;;;;1.27;0.82;;;;;;;19.28;100.00;100166.06;5093732;28;20051;-57
2021/07/08 09:45:10;;;;;;;1.85;0.88;;;;;;;19.67;100.00;100164.41;5092949;28;20172;-56
2021/07/08 09:48:20;;;;;;;3.15;0.93;;;;;;;20.01;100.00;100164.75;5093228;28;20047;-56
2021/07/08 09:51:31;;;;;;;2.33;0.90;;;;;;;19.59;100.00;100177.59;5092650;28;20472;-56
2021/07/08 09:55:01;;;;;;;1.60;1.50;;;;;;;19.20;100.00;100182.06;5093008;28;20106;-56
2021/07/08 09:58:05;;;;;;;3.97;1.80;;;;;;;19.04;100.00;100186.56;5093264;28;20493;-56
2021/07/08 10:01:13;;;;;;;4.75;1.17;;;;;;;19.28;100.00;100180.94;5093301;28;20038;-56
2021/07/08 10:04:16;;;;;;;2.00;0.85;;;;;;;19.17;100.00;100189.53;5092236;28;20051;-56
2021/07/08 10:07:20;;;;;;;1.50;0.95;;;;;;;19.07;100.00;100191.16;5092280;28;20519;-56
2021/07/08 10:10:24;;;;;;;2.60;1.00;;;;;;;18.87;100.00;100188.75;5092759;28;20039;-56
2021/07/08 10:13:28;;;;;;;4.20;1.13;;;;;;;18.67;100.00;100194.78;5092506;28;20054;-56
2021/07/08 10:16:32;;;;;;;2.95;1.55;;;;;;;18.60;100.00;100203.84;5092729;28;20082;-56
2021/07/08 10:19:36;;;;;;;1.85;1.15;;;;;;;18.97;100.00;100197.66;5092625;28;20499;-56
2021/07/08 10:22:40;;;;;;;3.22;1.20;;;;;;;19.68;100.00;100197.00;5092900;28;20051;-56
2021/07/08 10:25:43;;;;;;;2.97;1.38;;;;;;;19.79;100.00;100198.97;5092612;28;20062;-56
2021/07/08 10:28:48;;;;;;;1.30;0.90;;;;;;;19.79;100.00;100195.34;5092368;28;20055;-56
2021/07/08 10:31:52;;;;;;;5.97;1.52;;;;;;;19.65;100.00;100200.91;5092502;28;20058;-56
2021/07/08 10:34:56;;;;;;;5.93;1.70;;;;;;;19.37;100.00;100200.41;5096298;28;20047;-56
2021/07/08 10:38:00;;;;;;;2.55;1.55;;;;;;;19.16;100.00;100213.41;5096385;28;20051;-56
2021/07/08 10:41:09;;;;;;;7.15;2.17;;;;;;;18.94;100.00;100210.78;5096542;28;20043;-56
2021/07/08 10:44:34;;;;;;;2.05;1.85;;;;;;;19.06;100.00;100203.00;5096176;28;20051;-55
2021/07/08 10:47:40;;;;;;;7.38;2.00;;;;;;;19.09;100.00;100205.50;5096525;28;20043;-55
2021/07/08 10:50:45;;;;;;;2.25;1.25;;;;;;;19.85;100.00;100202.47;5096605;28;20411;-56
2021/07/08 10:53:51;;;;;;;1.38;0.95;;;;;;;19.85;100.00;100201.72;5096361;28;20059;-56
2021/07/08 10:56:56;;;;;;;4.00;1.45;;;;;;;19.67;100.00;100203.97;5096010;28;20046;-56
2021/07/08 10:59:59;;;;;;;2.63;1.27;;;;;;;19.98;100.00;100201.81;5096127;28;20059;-56
2021/07/08 11:03:02;;;;;;;3.08;1.30;;;;;;;20.76;100.00;100199.47;5094702;28;20472;-56
2021/07/08 11:06:34;;;;;;;1.75;0.85;;;;;;;21.03;100.00;100206.78;5095093;28;20067;-53
2021/07/08 11:09:57;;;;;;;3.75;1.17;;;;;;;21.53;100.00;100202.31;5095464;28;20043;-53
2021/07/08 11:13:26;;;;;;;2.90;0.50;;;;;;;21.75;100.00;100190.56;5094456;28;20051;-54
2021/07/08 11:16:43;;;;;;;5.88;1.02;;;;;;;21.81;100.00;100194.06;5095490;28;20043;-54
2021/07/08 11:19:48;;;;;;;2.42;0.60;;;;;;;22.31;100.00;100188.13;5095546;28;20047;-55
2021/07/08 11:22:52;;;;;;;0.98;0.25;;;;;;;22.09;100.00;100180.09;5095224;28;20118;-55
2021/07/08 11:25:55;;;;;;;4.97;0.50;;;;;;;21.51;100.00;100193.59;5095397;28;20059;-55
2021/07/08 11:29:00;;;;;;;3.38;0.60;;;;;;;21.28;100.00;100184.75;5096127;28;20051;-55
2021/07/08 11:32:35;;;;;;;2.15;0.45;;;;;;;21.06;100.00;100194.41;5095835;28;20058;-55
2021/07/08 11:35:39;;;;;;;7.97;0.80;;;;;;;21.41;100.00;100189.66;5095547;28;20039;-55
2021/07/08 11:38:43;;;;;;;1.48;0.57;;;;;;;21.89;100.00;100195.72;5095195;28;20047;-55
2021/07/08 11:41:49;;;;;;;1.20;0.57;;;;;;;22.36;100.00;100192.94;5095695;28;20036;-55
2021/07/08 11:44:53;;;;;;;1.65;0.40;;;;;;;22.51;100.00;100195.94;5094483;28;20051;-55
2021/07/08 11:47:58;;;;;;;1.30;0.35;;;;;;;22.51;100.00;100190.28;5095049;28;20047;-55
2021/07/08 11:51:12;;;;;;;2.30;0.63;;;;;;;22.68;100.00;100191.97;5095031;28;20043;-55
2021/07/08 11:54:16;;;;;;;2.33;0.40;;;;;;;22.73;100.00;100185.41;5095331;28;20055;-55
2021/07/08 11:57:20;;;;;;;6.40;0.30;;;;;;;22.27;100.00;100178.44;5094887;28;20039;-55
2021/07/08 12:00:30;;;;;;;3.28;0.40;;;;;;;22.25;100.00;100181.81;5095183;28;20385;-55
2021/07/08 12:03:47;;;;;;;1.65;0.38;;;;;;;21.76;100.00;100177.94;5094911;28;20051;-55
2021/07/08 12:06:52;;;;;;;1.75;0.93;;;;;;;21.46;100.00;100181.06;5094923;28;20502;-55
2021/07/08 12:09:56;;;;;;;2.05;0.50;;;;;;;21.34;100.00;100173.31;5094281;28;20062;-55
2021/07/08 12:13:02;;;;;;;1.60;0.57;;;;;;;21.52;100.00;100172.47;5094409;28;20491;-54
2021/07/08 12:16:08;;;;;;;3.30;0.40;;;;;;;21.51;100.00;100170.94;5094832;28;20050;-54
2021/07/08 12:19:14;;;;;;;1.85;0.95;;;;;;;21.30;100.00;100167.97;5094701;28;20051;-55
2021/07/08 12:22:18;;;;;;;1.00;0.52;;;;;;;20.94;100.00;100161.13;5094330;28;20071;-54
2021/07/08 12:25:23;;;;;;;6.88;0.52;;;;;;;21.28;100.00;100158.47;5093928;28;20059;-54
2021/07/08 12:28:26;;;;;;;3.92;0.60;;;;;;;22.00;100.00;100157.09;5094437;28;20500;-54
2021/07/08 12:31:48;;;;;;;1.80;0.40;;;;;;;22.59;100.00;100159.16;5094225;28;20047;-55
2021/07/08 12:34:58;;;;;;;4.43;0.50;;;;;;;22.30;100.00;100154.63;5094511;28;20055;-55
2021/07/08 12:38:01;;;;;;;2.47;0.40;;;;;;;21.98;100.00;100151.22;5094360;28;20043;-54
2021/07/08 12:41:05;;;;;;;1.80;0.50;;;;;;;21.71;100.00;100156.88;5094163;28;20055;-55
2021/07/08 12:44:14;;;;;;;1.63;0.47;;;;;;;21.89;100.00;100160.94;5093871;28;20054;-55
2021/07/08 12:47:18;;;;;;;2.00;0.82;;;;;;;21.92;100.00;100153.41;5094275;28;20051;-55
2021/07/08 12:50:31;;;;;;;5.18;0.50;;;;;;;21.89;100.00;100160.94;5093813;28;20050;-54
2021/07/08 12:53:35;;;;;;;2.58;0.65;;;;;;;22.28;100.00;100154.44;5094329;28;20067;-55
2021/07/08 12:56:39;;;;;;;1.75;0.60;;;;;;;22.39;100.00;100154.94;5092094;28;20050;-55
2021/07/08 12:59:56;;;;;;;2.55;0.90;;;;;;;22.55;100.00;100161.53;5093871;28;20515;-54
2021/07/08 13:03:00;;;;;;;5.05;0.73;;;;;;;22.77;100.00;100160.28;5093878;28;20396;-55
2021/07/08 13:06:11;;;;;;;2.65;0.57;;;;;;;22.84;100.00;100162.44;5093745;28;20376;-55
2021/07/08 13:09:15;;;;;;;1.15;0.40;;;;;;;22.95;100.00;100165.00;5093135;28;20392;-54
2021/07/08 13:12:21;;;;;;;1.50;0.77;;;;;;;23.04;100.00;100164.53;5093109;28;20071;-56
2021/07/08 13:15:25;;;;;;;1.70;0.68;;;;;;;23.05;100.00;100160.34;5093296;28;20066;-55
2021/07/08 13:18:36;;;;;;;1.75;0.40;;;;;;;23.00;100.00;100152.75;5093739;28;20051;-55
2021/07/08 13:21:42;;;;;;;2.42;0.93;;;;;;;22.78;100.00;100156.13;5093334;28;20388;-55
2021/07/08 13:24:49;;;;;;;4.45;0.82;;;;;;;22.36;100.00;100155.28;5093364;28;20479;-55
2021/07/08 13:27:55;;;;;;;0.85;0.60;;;;;;;21.89;100.00;100146.75;5093219;28;20499;-54
2021/07/08 13:31:07;;;;;;;1.48;0.75;;;;;;;21.36;100.00;100162.19;5093041;28;20059;-55
2021/07/08 13:34:21;;;;;;;0.80;0.40;;;;;;;21.02;100.00;100154.28;5092836;28;20043;-54
2021/07/08 13:37:25;;;;;;;1.25;0.65;;;;;;;21.13;100.00;100159.78;5093091;28;20051;-54
2021/07/08 13:40:29;;;;;;;1.10;0.73;;;;;;;21.67;100.00;100155.69;5092746;28;20086;-54
2021/07/08 13:43:38;;;;;;;5.72;0.80;;;;;;;21.75;100.00;100156.53;5092772;28;20055;-54
2021/07/08 13:46:43;;;;;;;1.20;0.43;;;;;;;21.79;100.00;100156.97;5093271;28;20043;-54
2021/07/08 13:49:47;;;;;;;0.73;0.20;;;;;;;21.86;100.00;100162.03;5092758;28;20039;-54
2021/07/08 13:52:50;;;;;;;2.03;0.55;;;;;;;21.94;100.00;100157.22;5093184;28;20495;-54
2021/07/08 13:55:53;;;;;;;0.20;0.20;;;;;;;21.66;100.00;100166.25;5093127;28;20046;-54
2021/07/08 13:58:57;;;;;;;0.95;0.50;;;;;;;21.58;100.00;100170.28;5093295;28;20042;-54
2021/07/08 14:02:01;;;;;;;7.18;0.80;;;;;;;21.49;100.00;100165.81;5092547;28;20039;-54
2021/07/08 14:05:05;;;;;;;2.35;1.27;;;;;;;21.56;100.00;100168.00;5092851;28;20055;-54
2021/07/08 14:08:08;;;;;;;1.77;0.80;;;;;;;21.41;100.00;100167.78;5092133;28;20059;-54
2021/07/08 14:11:14;;;;;;;2.05;0.65;;;;;;;21.18;100.00;100168.72;5092942;28;20047;-54
2021/07/08 14:14:17;;;;;;;2.20;0.70;;;;;;;21.00;100.00;100171.03;5072372;28;20114;-54
2021/07/08 14:17:21;;;;;;;4.47;0.90;;;;;;;20.80;100.00;100176.50;5072371;28;20059;-54